sensor_id;sensor_type;location;lat;lon;timestamp;pressure;altitude;pressure_sealevel;temperature;humidity
46714;BME280;32445;51.376;10.874;2023-05-23T00:00:42;99041.16;;;21.88;47.08
46714;BME280;32445;51.376;10.874;2023-05-23T00:03:43;99046.94;;;21.82;47.13
46714;BME280;32445;51.376;10.874;2023-05-23T00:06:43;99047.31;;;21.77;47.15
46714;BME280;32445;51.376;10.874;2023-05-23T00:09:46;99050.31;;;21.72;47.66
46714;BME280;32445;51.376;10.874;2023-05-23T00:12:46;99052.59;;;21.66;47.44
46714;BME280;32445;51.376;10.874;2023-05-23T00:15:47;99055.50;;;21.63;47.63
46714;BME280;32445;51.376;10.874;2023-05-23T00:18:48;99050.72;;;21.56;47.38
46714;BME280;32445;51.376;10.874;2023-05-23T00:21:49;99046.63;;;21.52;47.25
46714;BME280;32445;51.376;10.874;2023-05-23T00:24:51;99050.44;;;21.48;47.11
46714;BME280;32445;51.376;10.874;2023-05-23T00:27:51;99045.41;;;21.45;46.05
46714;BME280;32445;51.376;10.874;2023-05-23T00:30:52;99050.94;;;21.42;46.70
46714;BME280;32445;51.376;10.874;2023-05-23T00:33:52;99059.31;;;21.36;47.34
46714;BME280;32445;51.376;10.874;2023-05-23T00:36:52;99065.66;;;21.33;47.75
46714;BME280;32445;51.376;10.874;2023-05-23T00:39:53;99071.31;;;21.29;48.07
46714;BME280;32445;51.376;10.874;2023-05-23T00:42:53;99076.81;;;21.25;48.21
46714;BME280;32445;51.376;10.874;2023-05-23T00:45:54;99085.81;;;21.23;48.26
46714;BME280;32445;51.376;10.874;2023-05-23T00:48:54;99079.81;;;21.21;48.50
46714;BME280;32445;51.376;10.874;2023-05-23T00:51:55;99078.25;;;21.18;48.54
46714;BME280;32445;51.376;10.874;2023-05-23T00:54:55;99096.09;;;21.15;48.37
46714;BME280;32445;51.376;10.874;2023-05-23T00:57:56;99093.59;;;21.13;48.60
46714;BME280;32445;51.376;10.874;2023-05-23T01:00:58;99095.53;;;21.11;49.29
46714;BME280;32445;51.376;10.874;2023-05-23T01:03:58;99092.25;;;21.07;49.33
46714;BME280;32445;51.376;10.874;2023-05-23T01:07:02;99091.91;;;21.01;50.11
46714;BME280;32445;51.376;10.874;2023-05-23T01:10:03;99086.38;;;20.92;50.75
46714;BME280;32445;51.376;10.874;2023-05-23T01:13:35;99098.47;;;20.84;51.89
46714;BME280;32445;51.376;10.874;2023-05-23T01:16:47;99085.84;;;20.76;51.66
46714;BME280;32445;51.376;10.874;2023-05-23T01:20:02;99079.84;;;20.74;51.00
46714;BME280;32445;51.376;10.874;2023-05-23T01:26:30;99088.09;;;20.69;50.74
46714;BME280;32445;51.376;10.874;2023-05-23T01:29:34;99087.25;;;20.69;50.64
46714;BME280;32445;51.376;10.874;2023-05-23T01:32:38;99092.72;;;20.66;50.84
46714;BME280;32445;51.376;10.874;2023-05-23T01:35:39;99099.19;;;20.62;50.79
46714;BME280;32445;51.376;10.874;2023-05-23T01:38:42;99091.50;;;20.58;50.70
46714;BME280;32445;51.376;10.874;2023-05-23T01:41:43;99096.16;;;20.55;50.50
46714;BME280;32445;51.376;10.874;2023-05-23T01:44:44;99098.28;;;20.50;50.73
46714;BME280;32445;51.376;10.874;2023-05-23T01:47:46;99091.44;;;20.47;50.66
46714;BME280;32445;51.376;10.874;2023-05-23T01:50:49;99089.78;;;20.46;50.37
46714;BME280;32445;51.376;10.874;2023-05-23T01:53:50;99093.47;;;20.44;49.83
46714;BME280;32445;51.376;10.874;2023-05-23T01:56:51;99097.19;;;20.41;49.96
46714;BME280;32445;51.376;10.874;2023-05-23T01:59:51;99102.56;;;20.39;49.68
46714;BME280;32445;51.376;10.874;2023-05-23T02:02:51;99101.94;;;20.36;49.83
46714;BME280;32445;51.376;10.874;2023-05-23T02:05:52;99097.00;;;20.31;50.10
46714;BME280;32445;51.376;10.874;2023-05-23T02:08:52;99101.69;;;20.28;50.56
46714;BME280;32445;51.376;10.874;2023-05-23T02:11:53;99102.75;;;20.25;50.27
46714;BME280;32445;51.376;10.874;2023-05-23T02:14:53;99108.13;;;20.23;50.79
46714;BME280;32445;51.376;10.874;2023-05-23T02:17:54;99098.88;;;20.18;51.13
46714;BME280;32445;51.376;10.874;2023-05-23T02:20:55;99098.34;;;20.13;51.16
46714;BME280;32445;51.376;10.874;2023-05-23T02:23:55;99101.97;;;20.12;51.57
46714;BME280;32445;51.376;10.874;2023-05-23T02:26:55;99097.75;;;20.09;51.41
46714;BME280;32445;51.376;10.874;2023-05-23T02:29:56;99103.97;;;20.08;51.20
46714;BME280;32445;51.376;10.874;2023-05-23T02:32:56;99099.75;;;20.05;50.95
46714;BME280;32445;51.376;10.874;2023-05-23T02:35:57;99106.59;;;20.08;51.10
46714;BME280;32445;51.376;10.874;2023-05-23T02:38:57;99110.16;;;20.07;50.98
46714;BME280;32445;51.376;10.874;2023-05-23T02:41:58;99111.03;;;20.08;50.96
46714;BME280;32445;51.376;10.874;2023-05-23T02:44:58;99115.44;;;20.07;50.98
46714;BME280;32445;51.376;10.874;2023-05-23T02:47:59;99113.13;;;20.02;50.74
46714;BME280;32445;51.376;10.874;2023-05-23T02:50:59;99108.09;;;19.99;50.32
46714;BME280;32445;51.376;10.874;2023-05-23T02:54:00;99108.31;;;19.96;50.24
46714;BME280;32445;51.376;10.874;2023-05-23T02:57:00;99105.91;;;19.93;50.08
46714;BME280;32445;51.376;10.874;2023-05-23T03:00:00;99096.44;;;19.91;49.97
46714;BME280;32445;51.376;10.874;2023-05-23T03:03:01;99124.75;;;19.87;49.87
46714;BME280;32445;51.376;10.874;2023-05-23T03:06:01;99124.16;;;19.83;50.13
46714;BME280;32445;51.376;10.874;2023-05-23T03:09:04;99122.69;;;19.79;50.41
46714;BME280;32445;51.376;10.874;2023-05-23T03:12:04;99114.03;;;19.77;50.46
46714;BME280;32445;51.376;10.874;2023-05-23T03:15:06;99115.91;;;19.75;50.55
46714;BME280;32445;51.376;10.874;2023-05-23T03:18:06;99116.03;;;19.74;50.70
46714;BME280;32445;51.376;10.874;2023-05-23T03:21:07;99113.38;;;19.74;50.69
46714;BME280;32445;51.376;10.874;2023-05-23T03:24:08;99112.66;;;19.71;50.99
46714;BME280;32445;51.376;10.874;2023-05-23T03:27:09;99116.97;;;19.73;51.25
46714;BME280;32445;51.376;10.874;2023-05-23T03:30:09;99117.06;;;19.71;51.42
46714;BME280;32445;51.376;10.874;2023-05-23T03:33:10;99115.38;;;19.70;52.01
46714;BME280;32445;51.376;10.874;2023-05-23T03:36:11;99122.44;;;19.69;51.99
46714;BME280;32445;51.376;10.874;2023-05-23T03:39:11;99121.63;;;19.69;52.11
46714;BME280;32445;51.376;10.874;2023-05-23T03:42:12;99120.88;;;19.67;52.38
46714;BME280;32445;51.376;10.874;2023-05-23T03:45:12;99118.44;;;19.64;52.71
46714;BME280;32445;51.376;10.874;2023-05-23T03:48:13;99121.53;;;19.58;53.39
46714;BME280;32445;51.376;10.874;2023-05-23T03:51:13;99119.31;;;19.51;53.67
46714;BME280;32445;51.376;10.874;2023-05-23T03:54:17;99117.97;;;19.46;54.25
46714;BME280;32445;51.376;10.874;2023-05-23T03:57:18;99125.00;;;19.45;54.46
46714;BME280;32445;51.376;10.874;2023-05-23T04:00:19;99122.25;;;19.47;54.44
46714;BME280;32445;51.376;10.874;2023-05-23T04:03:19;99123.22;;;19.46;54.84
46714;BME280;32445;51.376;10.874;2023-05-23T04:06:19;99128.50;;;19.46;54.32
46714;BME280;32445;51.376;10.874;2023-05-23T04:09:21;99134.59;;;19.46;54.87
46714;BME280;32445;51.376;10.874;2023-05-23T04:12:22;99137.22;;;19.46;54.91
46714;BME280;32445;51.376;10.874;2023-05-23T04:15:22;99132.88;;;19.45;54.87
46714;BME280;32445;51.376;10.874;2023-05-23T04:18:23;99137.22;;;19.46;55.17
46714;BME280;32445;51.376;10.874;2023-05-23T04:21:24;99138.03;;;19.47;55.31
46714;BME280;32445;51.376;10.874;2023-05-23T04:24:24;99137.09;;;19.48;55.62
46714;BME280;32445;51.376;10.874;2023-05-23T04:27:25;99145.94;;;19.47;55.88
46714;BME280;32445;51.376;10.874;2023-05-23T04:30:25;99157.63;;;19.43;56.50
46714;BME280;32445;51.376;10.874;2023-05-23T04:33:26;99165.00;;;19.25;57.08
46714;BME280;32445;51.376;10.874;2023-05-23T04:36:27;99175.16;;;19.04;57.15
46714;BME280;32445;51.376;10.874;2023-05-23T04:39:28;99181.44;;;18.88;56.84
46714;BME280;32445;51.376;10.874;2023-05-23T04:42:29;99178.09;;;18.72;57.10
46714;BME280;32445;51.376;10.874;2023-05-23T04:45:29;99184.59;;;18.66;56.99
46714;BME280;32445;51.376;10.874;2023-05-23T04:48:29;99185.28;;;18.55;56.82
46714;BME280;32445;51.376;10.874;2023-05-23T04:51:33;99190.75;;;18.52;56.46
46714;BME280;32445;51.376;10.874;2023-05-23T04:54:34;99187.69;;;18.45;56.54
46714;BME280;32445;51.376;10.874;2023-05-23T04:57:42;99187.22;;;18.39;56.77
46714;BME280;32445;51.376;10.874;2023-05-23T05:00:43;99192.56;;;18.37;56.41
46714;BME280;32445;51.376;10.874;2023-05-23T05:03:49;99195.94;;;18.39;56.13
46714;BME280;32445;51.376;10.874;2023-05-23T05:06:53;99200.25;;;18.40;55.98
46714;BME280;32445;51.376;10.874;2023-05-23T05:09:56;99208.13;;;18.40;56.09
46714;BME280;32445;51.376;10.874;2023-05-23T05:12:56;99204.56;;;18.41;55.70
46714;BME280;32445;51.376;10.874;2023-05-23T05:15:57;99207.63;;;18.48;55.63
46714;BME280;32445;51.376;10.874;2023-05-23T05:18:58;99211.75;;;18.52;55.25
46714;BME280;32445;51.376;10.874;2023-05-23T05:21:58;99203.69;;;18.55;54.82
46714;BME280;32445;51.376;10.874;2023-05-23T05:24:59;99202.94;;;18.53;54.95
46714;BME280;32445;51.376;10.874;2023-05-23T05:28:01;99208.94;;;18.55;54.94
46714;BME280;32445;51.376;10.874;2023-05-23T05:31:07;99215.06;;;18.56;54.61
46714;BME280;32445;51.376;10.874;2023-05-23T05:34:09;99209.13;;;18.52;54.52
46714;BME280;32445;51.376;10.874;2023-05-23T05:37:10;99204.63;;;18.54;54.96
46714;BME280;32445;51.376;10.874;2023-05-23T05:40:13;99209.91;;;18.54;54.82
46714;BME280;32445;51.376;10.874;2023-05-23T05:43:14;99210.00;;;18.53;54.61
46714;BME280;32445;51.376;10.874;2023-05-23T05:46:15;99217.88;;;18.53;54.73
46714;BME280;32445;51.376;10.874;2023-05-23T05:49:15;99211.66;;;18.54;54.65
46714;BME280;32445;51.376;10.874;2023-05-23T05:52:16;99215.16;;;18.54;54.67
46714;BME280;32445;51.376;10.874;2023-05-23T05:55:16;99215.06;;;18.56;55.08
46714;BME280;32445;51.376;10.874;2023-05-23T05:58:17;99217.69;;;18.56;54.87
46714;BME280;32445;51.376;10.874;2023-05-23T06:01:18;99212.97;;;18.61;54.47
46714;BME280;32445;51.376;10.874;2023-05-23T06:04:19;99214.75;;;18.60;54.67
46714;BME280;32445;51.376;10.874;2023-05-23T06:07:19;99212.03;;;18.62;54.45
46714;BME280;32445;51.376;10.874;2023-05-23T06:10:20;99212.03;;;18.62;54.74
46714;BME280;32445;51.376;10.874;2023-05-23T06:13:20;99214.16;;;18.70;54.02
46714;BME280;32445;51.376;10.874;2023-05-23T06:16:22;99220.16;;;18.72;53.98
46714;BME280;32445;51.376;10.874;2023-05-23T06:19:23;99214.59;;;18.76;53.43
46714;BME280;32445;51.376;10.874;2023-05-23T06:22:24;99213.00;;;18.74;53.43
46714;BME280;32445;51.376;10.874;2023-05-23T06:25:26;99216.78;;;18.70;53.76
46714;BME280;32445;51.376;10.874;2023-05-23T06:28:27;99210.22;;;18.62;54.26
46714;BME280;32445;51.376;10.874;2023-05-23T06:31:30;99208.47;;;18.63;54.36
46714;BME280;32445;51.376;10.874;2023-05-23T06:34:31;99206.88;;;18.60;54.40
46714;BME280;32445;51.376;10.874;2023-05-23T06:37:31;99209.50;;;18.60;54.08
46714;BME280;32445;51.376;10.874;2023-05-23T06:40:32;99204.97;;;18.62;54.06
46714;BME280;32445;51.376;10.874;2023-05-23T06:43:32;99204.03;;;18.63;53.69
46714;BME280;32445;51.376;10.874;2023-05-23T06:46:33;99204.13;;;18.62;54.17
46714;BME280;32445;51.376;10.874;2023-05-23T06:49:34;99214.56;;;18.63;53.57
46714;BME280;32445;51.376;10.874;2023-05-23T06:52:37;99220.47;;;18.67;53.75
46714;BME280;32445;51.376;10.874;2023-05-23T06:55:37;99222.03;;;18.70;53.52
46714;BME280;32445;51.376;10.874;2023-05-23T06:58:38;99229.00;;;18.71;53.13
46714;BME280;32445;51.376;10.874;2023-05-23T07:01:38;99227.78;;;18.62;53.20
46714;BME280;32445;51.376;10.874;2023-05-23T07:04:41;99237.84;;;18.55;53.16
46714;BME280;32445;51.376;10.874;2023-05-23T07:07:42;99238.53;;;18.44;53.36
46714;BME280;32445;51.376;10.874;2023-05-23T07:10:43;99236.94;;;18.42;53.49
46714;BME280;32445;51.376;10.874;2023-05-23T07:13:46;99236.53;;;18.48;53.37
46714;BME280;32445;51.376;10.874;2023-05-23T07:16:47;99238.72;;;18.56;52.95
46714;BME280;32445;51.376;10.874;2023-05-23T07:19:47;99237.66;;;18.58;52.96
46714;BME280;32445;51.376;10.874;2023-05-23T07:22:48;99234.09;;;18.59;52.87
46714;BME280;32445;51.376;10.874;2023-05-23T07:25:50;99234.66;;;18.64;52.91
46714;BME280;32445;51.376;10.874;2023-05-23T07:28:51;99235.78;;;18.60;52.75
46714;BME280;32445;51.376;10.874;2023-05-23T07:31:51;99236.63;;;18.61;53.01
46714;BME280;32445;51.376;10.874;2023-05-23T07:34:55;99233.88;;;18.62;52.86
46714;BME280;32445;51.376;10.874;2023-05-23T07:37:55;99235.13;;;18.57;53.11
46714;BME280;32445;51.376;10.874;2023-05-23T07:40:57;99252.06;;;18.53;53.01
46714;BME280;32445;51.376;10.874;2023-05-23T07:43:57;99242.38;;;18.53;52.67
46714;BME280;32445;51.376;10.874;2023-05-23T07:46:58;99247.44;;;18.56;52.49
46714;BME280;32445;51.376;10.874;2023-05-23T07:49:59;99252.13;;;18.51;52.98
46714;BME280;32445;51.376;10.874;2023-05-23T07:53:01;99247.34;;;18.43;53.37
46714;BME280;32445;51.376;10.874;2023-05-23T07:56:01;99249.50;;;18.37;53.64
46714;BME280;32445;51.376;10.874;2023-05-23T07:59:02;99248.88;;;18.33;54.14
46714;BME280;32445;51.376;10.874;2023-05-23T08:02:02;99250.00;;;18.29;54.30
46714;BME280;32445;51.376;10.874;2023-05-23T08:05:03;99250.19;;;18.26;54.83
46714;BME280;32445;51.376;10.874;2023-05-23T08:08:03;99238.81;;;18.25;55.18
46714;BME280;32445;51.376;10.874;2023-05-23T08:11:04;99238.94;;;18.24;55.31
46714;BME280;32445;51.376;10.874;2023-05-23T08:14:04;99245.88;;;18.25;55.78
46714;BME280;32445;51.376;10.874;2023-05-23T08:17:05;99247.97;;;18.20;55.84
46714;BME280;32445;51.376;10.874;2023-05-23T08:20:05;99253.84;;;18.23;56.46
46714;BME280;32445;51.376;10.874;2023-05-23T08:23:08;99246.66;;;18.27;56.50
46714;BME280;32445;51.376;10.874;2023-05-23T08:26:11;99259.38;;;18.33;56.01
46714;BME280;32445;51.376;10.874;2023-05-23T08:29:14;99257.59;;;18.33;56.02
46714;BME280;32445;51.376;10.874;2023-05-23T08:32:15;99264.84;;;18.30;56.09
46714;BME280;32445;51.376;10.874;2023-05-23T08:35:15;99253.75;;;18.25;55.95
46714;BME280;32445;51.376;10.874;2023-05-23T08:38:16;99263.44;;;18.24;56.06
46714;BME280;32445;51.376;10.874;2023-05-23T08:41:23;99260.81;;;18.24;56.20
46714;BME280;32445;51.376;10.874;2023-05-23T08:44:24;99264.75;;;18.31;55.91
46714;BME280;32445;51.376;10.874;2023-05-23T08:47:24;99265.13;;;18.40;55.82
46714;BME280;32445;51.376;10.874;2023-05-23T08:50:27;99270.72;;;18.48;55.59
46714;BME280;32445;51.376;10.874;2023-05-23T08:53:30;99276.75;;;18.50;55.14
46714;BME280;32445;51.376;10.874;2023-05-23T08:56:31;99277.47;;;18.52;54.76
46714;BME280;32445;51.376;10.874;2023-05-23T08:59:32;99278.25;;;18.54;54.95
46714;BME280;32445;51.376;10.874;2023-05-23T09:02:33;99278.25;;;18.54;55.42
46714;BME280;32445;51.376;10.874;2023-05-23T09:05:34;99289.22;;;18.46;55.35
46714;BME280;32445;51.376;10.874;2023-05-23T09:08:35;99289.97;;;18.48;55.65
46714;BME280;32445;51.376;10.874;2023-05-23T09:11:36;99290.16;;;18.45;55.34
46714;BME280;32445;51.376;10.874;2023-05-23T09:14:36;99294.47;;;18.46;55.73
46714;BME280;32445;51.376;10.874;2023-05-23T09:17:37;99288.38;;;18.46;55.98
46714;BME280;32445;51.376;10.874;2023-05-23T09:20:39;99291.38;;;18.54;55.94
46714;BME280;32445;51.376;10.874;2023-05-23T09:23:40;99298.66;;;18.63;55.57
46714;BME280;32445;51.376;10.874;2023-05-23T09:26:41;99288.72;;;18.68;55.43
46714;BME280;32445;51.376;10.874;2023-05-23T09:29:41;99299.13;;;18.70;55.64
46714;BME280;32445;51.376;10.874;2023-05-23T09:33:04;99294.09;;;18.67;56.09
46714;BME280;32445;51.376;10.874;2023-05-23T09:36:08;99306.16;;;18.70;56.01
46714;BME280;32445;51.376;10.874;2023-05-23T09:39:15;99306.81;;;18.73;55.78
46714;BME280;32445;51.376;10.874;2023-05-23T09:42:21;99302.31;;;18.75;55.77
46714;BME280;32445;51.376;10.874;2023-05-23T09:45:28;99303.38;;;18.73;55.93
46714;BME280;32445;51.376;10.874;2023-05-23T09:48:30;99304.19;;;18.73;56.37
46714;BME280;32445;51.376;10.874;2023-05-23T09:51:33;99293.38;;;18.78;56.40
46714;BME280;32445;51.376;10.874;2023-05-23T09:54:34;99311.50;;;18.82;56.34
46714;BME280;32445;51.376;10.874;2023-05-23T09:57:39;99303.91;;;18.92;56.20
46714;BME280;32445;51.376;10.874;2023-05-23T10:00:40;99310.66;;;18.96;55.96
46714;BME280;32445;51.376;10.874;2023-05-23T10:06:55;99320.94;;;19.14;55.28
46714;BME280;32445;51.376;10.874;2023-05-23T10:10:02;99312.41;;;19.10;55.10
46714;BME280;32445;51.376;10.874;2023-05-23T10:13:04;99309.63;;;18.99;54.82
46714;BME280;32445;51.376;10.874;2023-05-23T10:16:06;99317.03;;;18.92;55.17
46714;BME280;32445;51.376;10.874;2023-05-23T10:22:41;99324.63;;;18.82;54.40
46714;BME280;32445;51.376;10.874;2023-05-23T10:25:47;99323.34;;;18.90;54.75
46714;BME280;32445;51.376;10.874;2023-05-23T10:28:51;99327.94;;;18.86;54.50
46714;BME280;32445;51.376;10.874;2023-05-23T10:31:52;99332.63;;;18.81;54.60
46714;BME280;32445;51.376;10.874;2023-05-23T10:35:28;99340.41;;;18.82;54.39
46714;BME280;32445;51.376;10.874;2023-05-23T10:39:01;99333.38;;;18.83;54.29
46714;BME280;32445;51.376;10.874;2023-05-23T10:42:16;99338.94;;;18.78;53.84
46714;BME280;32445;51.376;10.874;2023-05-23T10:45:24;99349.53;;;18.77;53.97
46714;BME280;32445;51.376;10.874;2023-05-23T10:48:35;99350.00;;;18.83;53.88
46714;BME280;32445;51.376;10.874;2023-05-23T10:51:40;99352.25;;;18.75;53.78
46714;BME280;32445;51.376;10.874;2023-05-23T10:54:45;99373.13;;;18.64;53.84
46714;BME280;32445;51.376;10.874;2023-05-23T10:58:09;99383.28;;;18.56;54.05
46714;BME280;32445;51.376;10.874;2023-05-23T11:01:38;99369.75;;;18.47;54.08
46714;BME280;32445;51.376;10.874;2023-05-23T11:04:38;99374.34;;;18.44;54.43
46714;BME280;32445;51.376;10.874;2023-05-23T11:07:39;99368.63;;;18.37;54.77
46714;BME280;32445;51.376;10.874;2023-05-23T11:10:59;99375.09;;;18.31;55.08
46714;BME280;32445;51.376;10.874;2023-05-23T11:14:00;99369.16;;;18.28;54.55
46714;BME280;32445;51.376;10.874;2023-05-23T11:17:15;99372.91;;;18.24;54.81
46714;BME280;32445;51.376;10.874;2023-05-23T11:20:22;99384.84;;;18.29;55.29
46714;BME280;32445;51.376;10.874;2023-05-23T11:23:41;99381.56;;;18.26;54.48
46714;BME280;32445;51.376;10.874;2023-05-23T11:26:54;99388.31;;;18.15;54.60
46714;BME280;32445;51.376;10.874;2023-05-23T11:30:06;99390.53;;;18.07;54.71
46714;BME280;32445;51.376;10.874;2023-05-23T11:33:11;99392.22;;;18.08;54.56
46714;BME280;32445;51.376;10.874;2023-05-23T11:36:15;99392.56;;;18.02;54.22
46714;BME280;32445;51.376;10.874;2023-05-23T11:39:16;99387.69;;;17.96;54.77
46714;BME280;32445;51.376;10.874;2023-05-23T11:42:18;99387.69;;;17.96;55.03
46714;BME280;32445;51.376;10.874;2023-05-23T11:45:23;99398.38;;;17.93;54.27
46714;BME280;32445;51.376;10.874;2023-05-23T11:48:24;99391.94;;;17.83;54.99
46714;BME280;32445;51.376;10.874;2023-05-23T11:51:24;99383.88;;;17.86;54.79
46714;BME280;32445;51.376;10.874;2023-05-23T11:54:27;99394.38;;;17.86;54.24
46714;BME280;32445;51.376;10.874;2023-05-23T11:57:29;99394.06;;;17.76;54.71
46714;BME280;32445;51.376;10.874;2023-05-23T12:00:29;99390.75;;;17.72;55.08
46714;BME280;32445;51.376;10.874;2023-05-23T12:03:31;99402.44;;;17.83;55.92
46714;BME280;32445;51.376;10.874;2023-05-23T12:06:37;99403.66;;;17.77;55.73
46714;BME280;32445;51.376;10.874;2023-05-23T12:09:45;99402.22;;;17.71;56.00
46714;BME280;32445;51.376;10.874;2023-05-23T12:12:46;99411.53;;;17.77;56.20
46714;BME280;32445;51.376;10.874;2023-05-23T12:15:46;99425.41;;;17.79;55.63
46714;BME280;32445;51.376;10.874;2023-05-23T12:18:52;99411.94;;;17.69;55.35
46714;BME280;32445;51.376;10.874;2023-05-23T12:21:55;99420.53;;;17.57;55.55
46714;BME280;32445;51.376;10.874;2023-05-23T12:24:55;99424.00;;;17.57;55.24
46714;BME280;32445;51.376;10.874;2023-05-23T12:27:56;99436.47;;;17.54;54.74
46714;BME280;32445;51.376;10.874;2023-05-23T12:30:57;99434.94;;;17.50;54.89
46714;BME280;32445;51.376;10.874;2023-05-23T12:33:57;99451.00;;;17.43;54.42
46714;BME280;32445;51.376;10.874;2023-05-23T12:36:59;99458.59;;;17.32;54.27
46714;BME280;32445;51.376;10.874;2023-05-23T12:40:13;99461.50;;;17.27;54.63
46714;BME280;32445;51.376;10.874;2023-05-23T12:43:14;99467.06;;;17.21;54.12
46714;BME280;32445;51.376;10.874;2023-05-23T12:46:15;99472.25;;;17.23;54.24
46714;BME280;32445;51.376;10.874;2023-05-23T12:49:17;99469.78;;;17.20;54.16
46714;BME280;32445;51.376;10.874;2023-05-23T12:52:18;99468.44;;;17.12;53.66
46714;BME280;32445;51.376;10.874;2023-05-23T12:55:18;99474.31;;;17.00;54.45
46714;BME280;32445;51.376;10.874;2023-05-23T12:58:21;99487.50;;;16.99;54.45
46714;BME280;32445;51.376;10.874;2023-05-23T13:01:22;99479.91;;;16.94;54.33
46714;BME280;32445;51.376;10.874;2023-05-23T13:04:23;99478.28;;;16.91;54.62
46714;BME280;32445;51.376;10.874;2023-05-23T13:07:23;99487.44;;;16.83;54.65
46714;BME280;32445;51.376;10.874;2023-05-23T13:10:24;99492.06;;;16.77;54.86
46714;BME280;32445;51.376;10.874;2023-05-23T13:13:25;99485.63;;;16.67;54.90
46714;BME280;32445;51.376;10.874;2023-05-23T13:16:25;99480.22;;;16.53;55.72
46714;BME280;32445;51.376;10.874;2023-05-23T13:19:26;99487.41;;;16.49;55.76
46714;BME280;32445;51.376;10.874;2023-05-23T13:22:27;99487.34;;;16.51;55.39
46714;BME280;32445;51.376;10.874;2023-05-23T13:25:28;99491.50;;;16.55;55.67
46714;BME280;32445;51.376;10.874;2023-05-23T13:28:29;99497.66;;;16.54;55.65
46714;BME280;32445;51.376;10.874;2023-05-23T13:31:29;99505.06;;;16.46;55.75
46714;BME280;32445;51.376;10.874;2023-05-23T13:34:30;99504.44;;;16.40;55.77
46714;BME280;32445;51.376;10.874;2023-05-23T13:37:30;99511.44;;;16.40;55.91
46714;BME280;32445;51.376;10.874;2023-05-23T13:40:31;99509.53;;;16.43;56.09
46714;BME280;32445;51.376;10.874;2023-05-23T13:43:32;99515.53;;;16.46;55.47
46714;BME280;32445;51.376;10.874;2023-05-23T13:46:32;99507.91;;;16.41;55.50
46714;BME280;32445;51.376;10.874;2023-05-23T13:49:32;99513.91;;;16.43;55.08
46714;BME280;32445;51.376;10.874;2023-05-23T13:52:33;99531.50;;;16.41;54.95
46714;BME280;32445;51.376;10.874;2023-05-23T13:55:33;99531.00;;;16.33;55.19
46714;BME280;32445;51.376;10.874;2023-05-23T13:58:33;99524.22;;;16.29;55.04
46714;BME280;32445;51.376;10.874;2023-05-23T14:01:34;99535.94;;;16.21;55.54
46714;BME280;32445;51.376;10.874;2023-05-23T14:04:34;99533.53;;;16.17;55.32
46714;BME280;32445;51.376;10.874;2023-05-23T14:07:35;99538.06;;;16.13;55.53
46714;BME280;32445;51.376;10.874;2023-05-23T14:10:39;99543.47;;;16.10;55.73
46714;BME280;32445;51.376;10.874;2023-05-23T14:13:40;99548.00;;;16.06;55.90
46714;BME280;32445;51.376;10.874;2023-05-23T14:16:40;99553.41;;;16.03;55.63
46714;BME280;32445;51.376;10.874;2023-05-23T14:19:41;99560.69;;;15.97;55.95
46714;BME280;32445;51.376;10.874;2023-05-23T14:22:41;99564.66;;;15.86;55.77
46714;BME280;32445;51.376;10.874;2023-05-23T14:25:42;99574.34;;;15.84;55.90
46714;BME280;32445;51.376;10.874;2023-05-23T14:28:42;99552.50;;;15.85;55.96
46714;BME280;32445;51.376;10.874;2023-05-23T14:31:43;99570.16;;;15.80;55.93
46714;BME280;32445;51.376;10.874;2023-05-23T14:34:43;99563.56;;;15.71;55.85
46714;BME280;32445;51.376;10.874;2023-05-23T14:37:44;99560.88;;;15.73;56.13
46714;BME280;32445;51.376;10.874;2023-05-23T14:40:45;99567.56;;;15.80;56.04
46714;BME280;32445;51.376;10.874;2023-05-23T14:43:47;99563.25;;;15.79;55.72
46714;BME280;32445;51.376;10.874;2023-05-23T14:46:48;99573.06;;;15.74;56.26
46714;BME280;32445;51.376;10.874;2023-05-23T14:49:52;99581.19;;;15.68;56.03
46714;BME280;32445;51.376;10.874;2023-05-23T14:52:53;99575.31;;;15.63;55.97
46714;BME280;32445;51.376;10.874;2023-05-23T14:55:54;99576.09;;;15.65;56.05
46714;BME280;32445;51.376;10.874;2023-05-23T14:58:54;99587.34;;;15.67;56.08
46714;BME280;32445;51.376;10.874;2023-05-23T15:01:56;99585.84;;;15.61;55.53
46714;BME280;32445;51.376;10.874;2023-05-23T15:05:00;99599.00;;;15.60;55.74
46714;BME280;32445;51.376;10.874;2023-05-23T15:08:00;99598.94;;;15.61;55.34
46714;BME280;32445;51.376;10.874;2023-05-23T15:11:02;99599.06;;;15.58;55.04
46714;BME280;32445;51.376;10.874;2023-05-23T15:14:03;99595.97;;;15.69;54.89
46714;BME280;32445;51.376;10.874;2023-05-23T15:17:04;99605.38;;;15.73;54.54
46714;BME280;32445;51.376;10.874;2023-05-23T15:20:07;99595.91;;;15.70;54.44
46714;BME280;32445;51.376;10.874;2023-05-23T15:23:09;99598.38;;;15.73;53.85
46714;BME280;32445;51.376;10.874;2023-05-23T15:26:09;99611.19;;;15.80;53.90
46714;BME280;32445;51.376;10.874;2023-05-23T15:29:09;99602.13;;;15.68;53.91
46714;BME280;32445;51.376;10.874;2023-05-23T15:32:11;99605.06;;;15.60;53.70
46714;BME280;32445;51.376;10.874;2023-05-23T15:35:11;99593.91;;;15.56;53.98
46714;BME280;32445;51.376;10.874;2023-05-23T15:38:12;99598.41;;;15.53;53.73
46714;BME280;32445;51.376;10.874;2023-05-23T15:41:12;99593.47;;;15.47;53.79
46714;BME280;32445;51.376;10.874;2023-05-23T15:44:12;99587.34;;;15.48;53.64
46714;BME280;32445;51.376;10.874;2023-05-23T15:47:17;99591.75;;;15.46;53.50
46714;BME280;32445;51.376;10.874;2023-05-23T15:50:17;99595.50;;;15.40;53.19
46714;BME280;32445;51.376;10.874;2023-05-23T15:53:19;99603.34;;;15.40;53.55
46714;BME280;32445;51.376;10.874;2023-05-23T15:56:19;99609.44;;;15.40;53.12
46714;BME280;32445;51.376;10.874;2023-05-23T15:59:20;99607.38;;;15.47;53.31
46714;BME280;32445;51.376;10.874;2023-05-23T16:02:21;99609.69;;;15.55;53.37